Weather observations for the past three days for
Ahoskie, Tri-County Airport
Imperial (Metric)
Date Time (edt) Wind (mph) Vis. (mi.) Weather Sky Cond. Temperature (ºF) Relative Humidity Wind Chill (°F) Heat Index (°F) Pressure Precipitation (in)
Air Dwpt 6 hour altimeter (in) sea level (mb) 1 hr 3 hr 6 hr
Max. Min.
31 02:55 Calm 4.00 Fair CLR 68 68 100% 30.11 0.0
31 02:35 S 3 2.00 Fair CLR 67.3 67.3 100% 30.11 0.0
31 02:15 Calm 1.75 Partly Cloudy SCT002 67.8 67.8 100% 30.11 0.0
31 01:55 Calm 0.75 Sky Obscured VV005 68.7 68.7 77 68.2 100% 30.11 0.0
31 01:35 Calm 7.00 Fair CLR 69.1 69.1 100% 30.11 0.0
31 01:15 Calm 0.50 Sky Obscured VV005 68.5 68.5 100% 30.11 0.0
31 00:55 Calm 10.00 Fair CLR 70.3 70.3 100% 30.12 0.0
31 00:35 Calm 10.00 Fair CLR 70.9 70.9 100% 30.12 0.0
31 00:15 Calm 10.00 Fair CLR 70.9 70.9 100% 30.12 0.0
30 23:55 S 3 10.00 Fair CLR 71.2 71.2 100% 30.12 0.0
30 23:35 Calm 10.00 Fair CLR 72.1 72.1 100% 30.12 0.0
30 23:15 Calm 10.00 Fair CLR 73.4 73.4 100% 30.13 0.0
30 22:55 Calm 10.00 Fair CLR 73.2 73.2 100% 30.13 0.0
30 22:35 Calm 10.00 Fair CLR 73.9 73.9 100% 30.13 0.0
30 22:15 S 5 10.00 Fair CLR 73.4 73.4 100% 30.13 0.0
30 21:55 S 5 10.00 Fair CLR 73 73 100% 30.13 0.0
30 21:35 Calm 10.00 Fair CLR 73.2 73.2 100% 30.13 0.0
30 21:15 Calm 10.00 Fair CLR 74.3 74.3 100% 30.13 0.0
30 20:55 Calm 10.00 Fair CLR 74.5 73.6 97% 30.12 0.0
30 20:35 Calm 10.00 Fair CLR 75.4 73.4 94% 74 30.11 0.0
30 20:15 Calm 10.00 Fair CLR 76.3 73.9 93% 76 30.11 0.0
30 19:55 S 3 10.00 Fair CLR 76.6 74.5 85.1 76.6 93% 77 30.11 0.0
30 19:35 Calm 10.00 Fair CLR 78.3 73.6 86% 81 30.11 0.0
30 19:15 Calm 10.00 Fair CLR 79.3 73.6 83% 83 30.12 0.0
30 18:55 Calm 10.00 Fair CLR 80.8 72.9 77% 85 30.11 0.0
30 18:35 Calm 10.00 Fair CLR 81.5 72.7 75% 86 30.12 0.0
30 18:15 S 3 10.00 Fair CLR 82.4 72.5 72% 88 30.12 0.0
30 17:55 Calm 10.00 Fair CLR 82.9 71.8 69% 88 30.12 0.0
30 17:15 Calm 10.00 Fair CLR 83.7 70.5 65% 88 30.11 0.0
30 16:55 Calm 10.00 Fair CLR 83.8 70 63% 88 30.11 0.0
30 16:35 Calm 10.00 Fair CLR 83.8 70.2 64% 88 30.11 0.0
30 16:15 S 3 10.00 Fair CLR 84 70.7 64% 89 30.11 0.0
30 15:55 S 3 10.00 Fair CLR 84 70.7 64% 89 30.13 0.0
30 15:35 S 5 10.00 Fair CLR 84 71.2 66% 89 30.14 0.0
30 15:15 S 6 10.00 Fair CLR 84 70.7 64% 89 30.14 0.0
30 14:55 Calm 10.00 Partly Cloudy SCT041 84.6 70.7 63% 89 30.14 0.0
30 14:35 Calm 10.00 Partly Cloudy SCT035 SCT041 83.8 70.2 64% 88 30.15 0.0
30 14:15 E 3 10.00 Partly Cloudy SCT035 SCT041 83.7 70.3 64% 88 30.15 0.0
30 13:55 Calm 10.00 Partly Cloudy SCT035 SCT041 83.5 70 84 70.2 64% 88 30.16 0.0
30 13:35 Calm 10.00 Fair CLR 83.3 69.6 63% 87 30.16 0.0
30 13:15 Calm 10.00 Partly Cloudy SCT033 82.9 70 65% 87 30.17 0.0
30 12:55 Calm 10.00 Fair CLR 82.8 69.8 65% 87 30.17 0.0
30 12:35 Calm 10.00 Fair CLR 82.4 69.3 65% 86 30.18 0.0
30 12:15 Calm 10.00 Fair CLR 82.4 70 66% 86 30.18 0.0
30 11:55 SE 5 10.00 Partly Cloudy SCT025 SCT034 81 69.8 69% 84 30.18 0.0
30 11:35 SE 5 10.00 Partly Cloudy SCT025 SCT034 81 69.8 69% 84 30.19 0.0
30 11:15 SE 3 10.00 Partly Cloudy SCT021 SCT034 80.6 70.7 72% 84 30.2 0.0
30 10:55 Calm 10.00 Mostly Cloudy SCT021 BKN028 BKN036 79.3 71.1 76% 82 30.21 0.0
30 10:35 Calm 10.00 Mostly Cloudy BKN019 BKN028 78.8 71.1 77% 82 30.21 0.0
30 10:15 Calm 10.00 Mostly Cloudy SCT012 BKN017 BKN028 79 71.2 77% 82 30.21 0.0
30 09:55 E 3 10.00 Mostly Cloudy BKN012 78.3 73.8 86% 81 30.21 0.0
30 09:35 Calm 10.00 Partly Cloudy SCT008 SCT012 75.4 74.5 97% 74 30.21 0.0
30 09:15 Calm 10.00 Mostly Cloudy BKN008 74.1 74.1 100% 30.22 0.0
30 08:55 Calm 10.00 Overcast BKN008 OVC011 73 73 100% 30.22 0.0
30 08:35 Calm 10.00 Mostly Cloudy SCT001 BKN008 72 72 100% 30.21 0.0
30 08:15 Calm 3.00 Mostly Cloudy BKN001 70.7 70.7 100% 30.21 0.0
30 07:55 Calm 1.75 Overcast OVC001 70 70 70 66.6 100% 30.21 0.0
30 07:35 Calm 3.00 Overcast OVC001 68.7 68.7 100% 30.21 0.0
30 07:15 Calm 0.50 Overcast OVC001 68 68 100% 30.22 0.0
30 06:55 Calm 0.15 Overcast OVC003 67.3 67.3 100% 30.21 0.0
30 06:35 Calm 0.25 Overcast OVC001 67.5 67.5 100% 30.21 0.0
30 06:15 Calm 1.25 Overcast OVC001 67.1 67.1 100% 30.2 0.0
30 05:55 Calm 0.50 Overcast OVC001 67.1 67.1 100% 30.2 0.0
30 05:35 Calm 5.00 Overcast OVC001 67.1 67.1 100% 30.2 0.0
30 05:15 Calm 7.00 Overcast OVC001 67.1 67.1 100% 30.19 0.0
30 04:55 Calm 2.00 Overcast OVC001 67.1 67.1 100% 30.19 0.0
30 04:35 Calm 1.50 Overcast OVC001 67.1 67.1 100% 30.19 0.0
30 04:15 Calm 7.00 Overcast OVC001 68 68 100% 30.19 0.0
30 03:55 Calm 0.50 Overcast OVC003 67.5 67.5 100% 30.19 0.0
30 03:35 Calm 0.25 Overcast OVC003 67.3 67.3 100% 30.19 0.0
30 03:15 Calm 4.00 Partly Cloudy SCT003 SCT017 67.6 67.6 100% 30.19 0.0
30 02:55 Calm 3.00 Fair CLR 67.6 67.6 100% 30.19 0.0
30 02:35 Calm 4.00 Fair CLR 68 68 100% 30.2 0.0
30 02:15 Calm 7.00 Fair CLR 68.7 68.7 100% 30.2 0.0
30 01:55 Calm 7.00 Fair CLR 69.1 69.1 73.9 68.2 100% 30.2 0.0
30 01:35 Calm 5.00 Fair CLR 68.7 68.7 100% 30.21 0.0
30 01:15 Calm 10.00 Fair CLR 69.3 69.3 100% 30.21 0.0
30 00:55 Calm 7.00 Partly Cloudy SCT021 SCT027 69.4 69.4 100% 30.22 0.0
30 00:35 Calm 10.00 Overcast OVC021 69.8 69.8 100% 30.22 0.0
30 00:15 Calm 10.00 Overcast OVC021 69.8 69.8 100% 30.22 0.0
29 23:55 Calm 10.00 Partly Cloudy SCT023 69.1 69.1 100% 30.21 0.0
29 23:35 Calm 7.00 Fair CLR 69.1 69.1 100% 30.21 0.0
29 23:15 Calm 10.00 Fair CLR 69.4 69.4 100% 30.2 0.0
29 22:55 Calm 10.00 Fair CLR 69.3 69.3 100% 30.2 0.0
29 22:35 Calm 7.00 Fair CLR 70 70 100% 30.2 0.0
29 22:15 Calm 10.00 Fair CLR 70.5 70.5 100% 30.2 0.0
29 21:55 Calm 10.00 Partly Cloudy SCT018 71.1 71.1 100% 30.2 0.0
29 21:35 Calm 10.00 Partly Cloudy SCT018 71.1 71.1 100% 30.2 0.0
29 21:15 Calm 10.00 Partly Cloudy SCT018 SCT022 71.6 71.6 100% 30.2 0.0
29 20:55 Calm 10.00 Partly Cloudy SCT018 71.8 71.8 100% 30.19 0.0
29 20:35 Calm 10.00 Fair CLR 72.3 72.3 100% 30.18 0.0
29 20:15 Calm 10.00 Fair CLR 72.7 72.7 100% 30.17 0.0
29 19:55 Calm 10.00 Fair CLR 73.9 73.6 81.9 73.9 99% 30.17 0.0
29 19:35 Calm 10.00 Fair CLR 74.7 73.8 97% 30.16 0.0
29 19:15 Calm 10.00 Fair CLR 75.4 73.9 95% 74 30.15 0.0
29 18:55 Calm 10.00 Fair CLR 76.1 73.2 91% 76 30.15 0.0
29 18:35 Calm 10.00 Fair CLR 76.6 72.3 87% 78 30.15 0.0
29 18:15 Calm 10.00 Fair CLR 77 71.8 84% 78 30.16 0.0
29 17:55 Calm 10.00 Fair CLR 77.2 71.4 82% 79 30.16 0.0
29 17:35 Calm 10.00 Fair CLR 77.2 70.7 81% 79 30.17 0.0
29 17:15 Calm 10.00 Fair CLR 77.2 70.5 80% 79 30.17 0.0
29 16:55 S 5 10.00 Mostly Cloudy SCT029 SCT034 BKN065 77.2 70.3 80% 79 30.18 0.0
29 16:35 S 7 10.00 Mostly Cloudy SCT029 BKN034 77 70 79% 79 30.18 0.0
29 16:15 E 7 10.00 Partly Cloudy SCT027 80.8 70.3 71% 84 30.18 0.0
29 15:55 NE 7 10.00 Partly Cloudy SCT065 81.3 71.4 72% 86 30.18 0.0
29 15:35 E 7 10.00 Partly Cloudy SCT024 80.6 71.1 73% 84 30.19 0.0
29 15:15 E 5 10.00 Fair CLR 79.7 70.9 75% 83 30.19 0.0
29 14:55 E 6 10.00 Partly Cloudy SCT050 79.9 70.9 74% 83 30.19 0.0
29 14:35 NE 6 10.00 Partly Cloudy SCT032 SCT041 80.1 71.6 75% 84 30.2 0.0
29 14:15 NE 5 10.00 Partly Cloudy SCT040 79.9 70.9 74% 83 30.2 0.0
29 13:55 E 5 10.00 Partly Cloudy SCT037 79.7 70.2 79.9 71.2 73% 83 30.2 0.0
29 13:35 E 3 10.00 Fair CLR 79.7 70.5 74% 83 30.2 0.0
29 13:15 E 6 10.00 Partly Cloudy SCT022 SCT034 79.7 71.2 75% 83 30.2 0.0
29 12:55 E 6 10.00 Mostly Cloudy SCT026 BKN034 79.3 70.5 75% 82 30.2 0.0
29 12:35 E 3 10.00 Mostly Cloudy SCT028 BKN032 79.3 70.3 74% 82 30.2 0.0
29 12:15 E 5 10.00 Partly Cloudy SCT026 SCT030 79.3 70.5 75% 82 30.2 0.0
29 11:55 E 8 10.00 Partly Cloudy SCT020 79.2 70.5 75% 82 30.19 0.0
29 11:35 E 7 10.00 Fair CLR 78.8 70.7 76% 82 30.19 0.0
29 11:15 NE 5 10.00 Fair CLR 78.1 71.1 79% 80 30.19 0.0
29 10:55 NE 5 10.00 Partly Cloudy SCT085 77.9 71.4 81% 80 30.19 0.0
29 10:35 NE 5 10.00 Partly Cloudy SCT013 SCT095 77.2 71.1 81% 79 30.19 0.0
29 10:15 NE 5 10.00 Partly Cloudy SCT013 SCT095 77 71.8 84% 78 30.18 0.0
29 09:55 NE 5 10.00 Partly Cloudy SCT011 75.7 72.9 91% 75 30.17 0.0
29 09:35 NE 5 10.00 Fair CLR 75.9 73.8 93% 76 30.17 0.0
29 09:15 N 3 10.00 Partly Cloudy SCT006 74.1 74.1 100% 30.17 0.0
29 08:55 Calm 10.00 Partly Cloudy SCT006 73 73 100% 30.16 0.0
29 08:35 Calm 10.00 Partly Cloudy SCT009 72.3 72.3 100% 30.16 0.0
29 08:15 Calm 10.00 Partly Cloudy SCT011 71.8 71.8 100% 30.17 0.0
29 07:55 N 3 10.00 Fair CLR 71.2 71.2 72 70 100% 30.16 0.0
29 07:35 Calm 10.00 Fair CLR 70.7 70.7 100% 30.15 0.0
29 07:15 Calm 10.00 Fair CLR 70.2 70.2 100% 30.14 0.0
29 06:55 Calm 7.00 Fair CLR 70.2 70.2 100% 30.14 0.0
29 06:35 Calm 7.00 Fair CLR 70.3 70.3 100% 30.13 0.0
29 06:15 N 3 7.00 Partly Cloudy SCT002 70.3 70.3 100% 30.12 0.0
29 05:55 Calm 7.00 Mostly Cloudy SCT002 BKN100 70.5 70.5 100% 30.12 0.0
29 05:35 Calm 7.00 Overcast OVC100 70.5 70.5 100% 30.11 0.0
29 05:15 Calm 10.00 Overcast SCT003 OVC100 70.9 70.9 100% 30.11 0.0
29 04:55 N 3 10.00 Mostly Cloudy SCT003 BKN100 70.9 70.9 100% 30.11 0.0
29 04:35 N 3 10.00 Fair CLR 70.9 70.9 100% 30.11 0.0
29 04:15 Calm 10.00 Fair CLR 70.9 70.9 100% 30.1 0.0
29 03:55 N 3 10.00 Fair CLR 70.9 70.9 100% 30.1 0.0
29 03:35 Calm 10.00 Fair CLR 71.1 71.1 100% 30.09 0.0
29 03:15 N 3 10.00 Fair CLR 71.6 71.6 100% 30.09 0.0
29 02:55 N 3 10.00 Fair CLR 71.6 71.6 100% 30.09 0.0
29 02:35 NE 3 10.00 Fair CLR 71.8 71.8 100% 30.09 0.0
29 02:15 Calm 10.00 Fair CLR 71.6 71.6 100% 30.08 0.0
29 01:55 Calm 10.00 Fair CLR 72.1 72.1 79.3 72 100% 30.07 0.0
29 01:35 Calm 10.00 Fair CLR 72.1 72.1 100% 30.07 0.0
29 01:15 Calm 10.00 Fair CLR 72.1 72.1 100% 30.07 0.0
29 00:55 Calm 10.00 Fair CLR 72.5 72.5 100% 30.07 0.0
29 00:35 Calm 10.00 Partly Cloudy SCT095 SCT110 72.5 72.5 100% 30.07 0.0
29 00:15 Calm 10.00 Mostly Cloudy BKN110 72.5 72.5 100% 30.06 0.0
28 23:55 S 3 10.00 Partly Cloudy SCT120 72.5 72.5 100% 30.07 0.0
28 23:35 Calm 10.00 Fair CLR 72.7 72.7 100% 30.07 0.0
28 23:15 E 3 10.00 Mostly Cloudy SCT038 SCT050 BKN085 73 73 100% 30.04 0.0
28 22:55 NE 8 1.50 Overcast SCT027 BKN039 OVC075 73.8 73.6 99% 30.06 0.0
28 22:35 NW 3 10.00 Overcast SCT040 BKN055 OVC080 75.7 72.1 89% 76 30.07 0.0
28 22:15 N 5 10.00 Overcast SCT044 BKN070 OVC085 77.4 70.7 80% 79 30.06 0.0
28 21:55 N 6 10.00 Mostly Cloudy SCT055 BKN080 77.5 71.8 83% 79 30.04 0.0
28 21:35 Calm 10.00 Partly Cloudy SCT055 77 72.9 87% 78 30.04 0.0
28 21:15 Calm 10.00 Fair CLR 76.6 75.2 95% 77 30.03 0.0
28 20:55 Calm 10.00 Partly Cloudy SCT050 77.9 74.3 89% 80 30.02 0.0
28 20:35 Calm 10.00 Mostly Cloudy BKN050 78.8 73.6 84% 82 30.03 0.0
28 20:15 N 3 10.00 Partly Cloudy SCT060 78.3 73.4 85% 81 30.02 0.0
28 19:55 S 3 10.00 Partly Cloudy SCT060 79.5 72.9 88.3 79.5 80% 83 30 0.0
28 19:35 Calm 10.00 Fair CLR 80.1 73 79% 84 30 0.0
28 19:15 S 3 10.00 Fair CLR 80.8 72.9 77% 85 29.99 0.0
28 18:55 S 3 10.00 Fair CLR 81.3 73.4 77% 87 29.99 0.0
28 18:35 Calm 10.00 Fair CLR 82.4 72.5 72% 88 29.98 0.0
28 18:15 S 5 10.00 Fair CLR 82.9 72.1 70% 88 29.98 0.0
28 17:55 S 3 10.00 Fair CLR 83.8 72.3 68% 90 29.98 0.0
28 17:35 Calm 10.00 Fair CLR 84.7 71.8 65% 90 29.98 0.0
28 17:15 Calm 10.00 Partly Cloudy SCT070 85.6 69.6 59% 90 29.98 0.0
28 16:55 S 6 10.00 Fair CLR 86.4 69.4 57% 91 29.98 0.0
28 16:35 S 3 10.00 Fair CLR 87.1 69.3 56% 91 29.98 0.0
28 16:15 S 5 10.00 Fair CLR 87.6 70 56% 93 29.98 0.0
28 15:55 S 6 10.00 Partly Cloudy SCT045 SCT080 86.9 68.9 55% 91 29.98 0.0
28 15:35 S 3 10.00 Partly Cloudy SCT043 86.4 70 58% 91 29.98 0.0
28 15:15 SE 5 10.00 Partly Cloudy SCT043 SCT075 SCT080 86 70.5 60% 91 29.98 0.0
28 14:55 W 5 10.00 Overcast SCT039 SCT050 OVC075 86.5 70.3 59% 92 30 0.0
28 14:35 Calm 10.00 Mostly Cloudy BKN037 BKN045 BKN050 84.6 70.2 62% 89 30 0.0
28 14:15 NW 3 10.00 Mostly Cloudy SCT037 SCT045 BKN050 85.1 71.2 63% 91 30 0.0
28 13:55 Calm 10.00 Overcast BKN036 BKN048 OVC065 83.3 69.6 85.3 72.7 63% 87 30.01 0.0
28 13:35 SW 5 10.00 Mostly Cloudy SCT034 BKN039 BKN055 84.6 71.2 64% 90 30.01 0.0
28 13:15 W 5 10.00 Mostly Cloudy BKN032 BKN042 BKN055 84.9 71.2 64% 90 30.02 0.0
28 12:55 S 6 10.00 Partly Cloudy SCT032 84.6 71.2 64% 90 30.02 0.0
28 12:35 Calm 10.00 Partly Cloudy SCT030 82.8 70.2 66% 87 30.03 0.0
28 12:15 Calm 10.00 Partly Cloudy SCT028 82.4 70 66% 86 30.03 0.0
28 11:55 S 3 10.00 Fair CLR 82.2 71.4 70% 87 30.03 0.0
28 11:35 Calm 10.00 Fair CLR 80.6 70.2 71% 84 30.03 0.0
28 11:15 S 7 10.00 Fair CLR 80.2 71.4 75% 84 30.04 0.0
28 10:55 S 5 10.00 Fair CLR 79 71.1 77% 82 30.03 0.0
28 10:35 W 5 10.00 Partly Cloudy SCT014 78.1 70.9 79% 80 30.04 0.0
28 10:15 W 6 10.00 Partly Cloudy SCT014 77 70.9 81% 79 30.03 0.0
28 09:55 Calm 10.00 Fair CLR 76.1 70.7 83% 77 30.02 0.0
28 09:35 S 6 10.00 Fair CLR 76.1 71.1 84% 77 30.02 0.0
28 09:15 SW 5 10.00 Partly Cloudy SCT009 74.7 71.4 90% 30.02 0.0
28 08:55 Calm 10.00 Partly Cloudy SCT009 74.3 72.5 94% 30.01 0.0
28 08:35 S 5 10.00 Partly Cloudy SCT009 74.7 72.3 92% 30.01 0.0
28 08:15 SW 3 10.00 Partly Cloudy SCT006 SCT019 74.7 73.9 98% 30.01 0.0
28 07:55 Calm 10.00 Partly Cloudy SCT019 72.7 72.7 72.7 70.2 100% 30 0.0
28 07:35 Calm 7.00 Fair CLR 71.6 71.6 100% 30 0.0
28 07:15 Calm 5.00 Mostly Cloudy BKN021 70.9 70.9 100% 29.99 0.0
28 06:55 Calm 5.00 Mostly Cloudy BKN021 70.7 70.7 100% 29.99 0.0
28 06:35 Calm 5.00 Fair CLR 70.2 70.2 100% 29.98 0.0
28 06:15 Calm 5.00 Fair CLR 70.2 70.2 100% 29.98 0.0
28 05:55 Calm 7.00 Fair CLR 70.7 70.7 100% 29.97 0.0
28 05:35 Calm 5.00 Fair CLR 70.5 70.5 100% 29.97 0.0
28 05:15 Calm 7.00 Fair CLR 70.7 70.7 100% 29.97 0.0
28 04:55 Calm 7.00 Fair CLR 70.9 70.9 100% 29.97 0.0
28 04:35 Calm 10.00 Partly Cloudy SCT008 SCT026 71.1 71.1 100% 29.98 0.0
28 04:15 Calm 10.00 Partly Cloudy SCT008 SCT019 71.6 71.6 100% 29.97 0.0
28 03:55 Calm 10.00 Partly Cloudy SCT013 SCT019 72 72 100% 29.96 0.0
28 03:35 Calm 10.00 Partly Cloudy SCT013 SCT020 72.1 72.1 100% 29.97 0.0
28 03:15 Calm 10.00 Partly Cloudy SCT018 72.7 72.7 100% 29.96 0.0
Date Time (edt) Wind (mph) Vis. (mi.) Weather Sky Cond. Air Dwpt Max. Min. Relative Humidity Wind Chill (°F) Heat Index (°F) altimeter (in) sea level (mb) 1 hr 3 hr 6 hr
6 hour
Temperature (ºF) Pressure Precipitation (in)